Time;durP1;ratioP1;P1;durP2;ratioP2;P2;SDS_P1;SDS_P2;PMS_P1;PMS_P2;Temp;Humidity;BMP_temperature;BMP_pressure;BME280_temperature;BME280_humidity;BME280_pressure;Samples;Min_cycle;Max_cycle;Signal;HPM_P1;HPM_P2
2021/06/16 00:00:15;;;;;;;8.77;3.40;;;;;;;15.90;64.95;102017.94;5017962;28;20054;-71
2021/06/16 00:02:43;;;;;;;9.23;4.38;;;;;;;15.88;65.38;102015.31;5011409;28;20060;-70
2021/06/16 00:05:14;;;;;;;10.35;4.13;;;;;;;15.84;65.46;102005.59;5016870;28;20065;-70
2021/06/16 00:07:42;;;;;;;9.43;3.80;;;;;;;15.82;65.33;102002.97;5015586;28;20149;-70
2021/06/16 00:10:11;;;;;;;10.77;4.22;;;;;;;15.81;65.44;101997.63;5015352;28;20067;-68
2021/06/16 00:12:40;;;;;;;12.70;4.63;;;;;;;15.77;65.37;101998.69;5015752;28;20092;-69
2021/06/16 00:15:15;;;;;;;10.95;4.57;;;;;;;15.75;66.29;101995.13;5017037;28;20064;-70
2021/06/16 00:17:43;;;;;;;12.32;4.38;;;;;;;15.72;65.32;101998.81;5010913;28;20116;-71
2021/06/16 00:20:12;;;;;;;13.43;4.85;;;;;;;15.69;66.25;101996.22;5019633;28;20077;-70
2021/06/16 00:22:40;;;;;;;9.73;4.25;;;;;;;15.70;66.26;101995.31;5011799;28;20057;-71
2021/06/16 00:25:09;;;;;;;12.18;4.35;;;;;;;15.65;66.05;101992.75;5018846;28;20062;-70
2021/06/16 00:27:37;;;;;;;12.90;4.40;;;;;;;15.64;66.19;101988.31;5013069;28;20065;-70
2021/06/16 00:30:06;;;;;;;8.65;4.03;;;;;;;15.64;66.10;101984.75;5019190;28;20077;-70
2021/06/16 00:32:35;;;;;;;10.77;4.43;;;;;;;15.58;66.82;101985.84;5016087;28;20159;-70
2021/06/16 00:35:04;;;;;;;11.77;4.32;;;;;;;15.61;66.78;101979.47;5015597;28;20080;-69
2021/06/16 00:37:33;;;;;;;10.30;4.05;;;;;;;15.62;67.13;101981.22;5014599;28;20131;-71
2021/06/16 00:40:02;;;;;;;9.32;4.05;;;;;;;15.56;67.42;101979.66;5016687;28;20069;-69
2021/06/16 00:42:29;;;;;;;7.82;3.90;;;;;;;15.58;66.84;101985.84;5015619;28;20065;-69
2021/06/16 00:44:57;;;;;;;10.10;4.25;;;;;;;15.52;67.30;101982.50;5015367;28;20596;-69
2021/06/16 00:47:25;;;;;;;9.95;4.50;;;;;;;15.50;67.63;101985.22;5015189;28;20061;-69
2021/06/16 00:49:54;;;;;;;10.73;4.53;;;;;;;15.49;67.36;101986.16;5015302;28;20067;-69
2021/06/16 00:52:22;;;;;;;12.05;4.50;;;;;;;15.45;67.84;101976.44;5016914;28;20061;-71
2021/06/16 00:54:50;;;;;;;9.90;4.05;;;;;;;15.46;68.08;101988.94;5014488;28;20073;-69
2021/06/16 00:57:18;;;;;;;11.43;4.47;;;;;;;15.39;68.30;101980.22;5018162;28;20073;-70
2021/06/16 00:59:54;;;;;;;10.98;4.32;;;;;;;15.37;68.61;101970.44;5015849;28;20049;-69
2021/06/16 01:02:22;;;;;;;7.95;4.25;;;;;;;15.35;68.93;101972.31;5017227;28;20663;-70
2021/06/16 01:04:55;;;;;;;10.52;4.13;;;;;;;15.33;68.86;101969.66;5014233;28;20072;-70
2021/06/16 01:07:30;;;;;;;9.25;4.53;;;;;;;15.33;69.98;101956.22;5021419;28;20069;-70
2021/06/16 01:10:02;;;;;;;10.68;4.38;;;;;;;15.30;69.93;101965.25;5016045;28;20065;-70
2021/06/16 01:12:40;;;;;;;10.40;4.85;;;;;;;15.32;70.04;101965.22;5018621;28;20472;-70
2021/06/16 01:15:11;;;;;;;13.60;4.85;;;;;;;15.29;70.55;101959.97;5016691;28;20113;-71
2021/06/16 01:17:44;;;;;;;8.38;4.70;;;;;;;15.26;70.17;101955.56;5016428;28;20062;-71
2021/06/16 01:20:28;;;;;;;10.65;5.07;;;;;;;15.25;70.54;101961.84;5014806;28;20064;-69
2021/06/16 01:23:20;;;;;;;12.68;4.85;;;;;;;15.24;70.34;101953.88;5017574;28;20144;-69
2021/06/16 01:25:53;;;;;;;14.00;4.90;;;;;;;15.21;70.89;101954.84;5014712;28;20068;-69
2021/06/16 01:28:25;;;;;;;9.80;4.28;;;;;;;15.18;71.19;101954.06;5016227;28;20065;-69
2021/06/16 01:30:54;;;;;;;11.25;4.63;;;;;;;15.17;71.36;101946.91;5012087;28;20060;-69
2021/06/16 01:33:26;;;;;;;9.52;4.85;;;;;;;15.17;71.12;101950.50;5018215;28;20069;-71
2021/06/16 01:35:56;;;;;;;9.43;4.93;;;;;;;15.17;71.23;101950.50;5015969;28;20068;-69
2021/06/16 01:38:24;;;;;;;13.50;5.65;;;;;;;15.16;71.42;101948.72;5020728;28;20069;-70
2021/06/16 01:40:58;;;;;;;13.52;5.13;;;;;;;15.18;71.48;101951.38;5017555;28;20065;-69
2021/06/16 01:43:28;;;;;;;12.30;5.38;;;;;;;15.19;71.31;101945.94;5021227;28;20136;-70
2021/06/16 01:46:00;;;;;;;13.15;5.30;;;;;;;15.19;71.49;101942.34;5018061;28;20100;-70
2021/06/16 01:48:30;;;;;;;11.43;5.20;;;;;;;15.18;71.44;101936.09;5017639;28;20061;-70
2021/06/16 01:51:00;;;;;;;12.40;5.32;;;;;;;15.17;71.43;101934.38;5021511;28;20053;-69
2021/06/16 01:53:28;;;;;;;11.13;5.53;;;;;;;15.14;71.12;101937.16;5018616;28;20107;-70
2021/06/16 01:56:00;;;;;;;14.95;6.15;;;;;;;15.12;71.02;101937.22;5016766;28;20068;-70
2021/06/16 01:58:29;;;;;;;12.30;5.97;;;;;;;15.08;71.07;101938.22;5022336;28;20057;-69
2021/06/16 02:00:57;;;;;;;14.65;6.47;;;;;;;15.08;70.83;101935.53;5016834;28;20232;-70
2021/06/16 02:03:25;;;;;;;11.05;5.20;;;;;;;15.09;71.31;101929.25;5021183;28;20069;-70
2021/06/16 02:05:53;;;;;;;14.30;6.00;;;;;;;15.06;71.44;101926.66;5018737;28;20112;-70
2021/06/16 02:08:25;;;;;;;11.25;5.95;;;;;;;15.03;71.05;101928.56;5015681;28;20065;-70
2021/06/16 02:10:55;;;;;;;11.65;5.78;;;;;;;15.00;71.52;101926.88;5022385;28;20065;-69
2021/06/16 02:13:26;;;;;;;11.80;5.78;;;;;;;15.03;71.49;101928.56;5015104;28;20060;-70
2021/06/16 02:16:02;;;;;;;15.60;7.00;;;;;;;15.02;71.69;101919.63;5038244;28;20068;-70
2021/06/16 02:18:34;;;;;;;12.82;5.47;;;;;;;15.03;71.68;101923.19;5016752;28;20482;-70
2021/06/16 02:21:02;;;;;;;14.80;6.25;;;;;;;15.01;71.68;101919.69;5018763;28;20057;-69
2021/06/16 02:23:31;;;;;;;13.93;5.65;;;;;;;14.99;71.45;101922.41;5019478;28;20468;-70
2021/06/16 02:25:58;;;;;;;12.98;5.28;;;;;;;14.96;71.75;101927.03;5013913;28;20057;-70
2021/06/16 02:28:26;;;;;;;12.88;5.90;;;;;;;14.94;71.64;101917.19;5018831;28;20062;-70
2021/06/16 02:30:54;;;;;;;12.40;6.03;;;;;;;14.89;72.19;101918.28;5017187;28;20069;-69
2021/06/16 02:33:23;;;;;;;11.93;6.10;;;;;;;14.88;71.77;101911.13;5013625;28;20089;-69
2021/06/16 02:35:51;;;;;;;15.95;6.78;;;;;;;14.82;72.15;101909.53;5038610;28;20073;-68
2021/06/16 02:38:23;;;;;;;11.27;5.95;;;;;;;14.78;72.91;101907.91;5015175;28;20062;-69
2021/06/16 02:40:52;;;;;;;17.90;6.40;;;;;;;14.75;73.18;101900.78;5026691;28;20053;-70
2021/06/16 02:43:22;;;;;;;12.63;6.18;;;;;;;14.75;73.11;101894.56;5015290;28;20128;-70
2021/06/16 02:45:51;;;;;;;13.13;5.70;;;;;;;14.76;73.11;101882.88;5017547;28;20057;-70
2021/06/16 02:48:20;;;;;;;12.90;6.28;;;;;;;14.72;73.37;101892.84;5015760;28;20053;-70
2021/06/16 02:50:51;;;;;;;15.48;6.30;;;;;;;14.72;73.67;101881.22;5016381;28;20068;-70
2021/06/16 02:53:23;;;;;;;14.30;6.53;;;;;;;14.71;73.73;101880.34;5017206;28;20123;-70
2021/06/16 02:55:55;;;;;;;17.17;7.05;;;;;;;14.72;73.47;101876.72;5014384;28;20072;-70
2021/06/16 02:58:23;;;;;;;16.55;7.43;;;;;;;14.79;73.04;101881.91;5013505;28;20069;-70
2021/06/16 03:00:59;;;;;;;16.48;6.90;;;;;;;14.77;73.26;101878.38;5021027;28;20065;-73
2021/06/16 03:03:28;;;;;;;13.88;5.82;;;;;;;14.75;73.44;101879.31;5016658;28;20061;-74
2021/06/16 03:06:01;;;;;;;16.50;6.95;;;;;;;14.73;73.49;101877.63;5017766;28;20104;-74
2021/06/16 03:08:29;;;;;;;13.88;6.40;;;;;;;14.70;73.73;101873.22;5016808;28;20066;-73
2021/06/16 03:10:59;;;;;;;12.73;6.15;;;;;;;14.70;73.40;101878.59;5016628;28;20070;-74
2021/06/16 03:13:29;;;;;;;12.02;6.57;;;;;;;14.70;73.29;101872.34;5015640;28;20069;-74
2021/06/16 03:15:58;;;;;;;16.15;6.88;;;;;;;14.74;73.29;101877.56;5014470;28;20079;-74
2021/06/16 03:18:28;;;;;;;10.27;6.55;;;;;;;14.79;73.21;101871.16;5020111;28;20179;-73
2021/06/16 03:20:59;;;;;;;15.23;6.80;;;;;;;14.75;73.49;101873.94;5013392;28;20452;-73
2021/06/16 03:23:28;;;;;;;14.15;6.22;;;;;;;14.73;73.53;101880.31;5018621;28;20069;-76
2021/06/16 03:25:58;;;;;;;16.75;7.00;;;;;;;14.70;73.76;101872.34;5011680;28;20108;-70
2021/06/16 03:28:29;;;;;;;11.60;6.93;;;;;;;14.66;74.14;101876.03;5016708;28;20061;-70
2021/06/16 03:30:59;;;;;;;16.40;7.38;;;;;;;14.66;74.17;101863.50;5014180;28;20089;-69
2021/06/16 03:33:28;;;;;;;11.95;7.18;;;;;;;14.67;74.18;101867.94;5015266;28;20058;-69
2021/06/16 03:35:59;;;;;;;12.95;6.57;;;;;;;14.67;74.14;101865.25;5014438;28;20060;-70
2021/06/16 03:38:27;;;;;;;16.48;7.20;;;;;;;14.63;74.45;101863.59;5019013;28;20061;-69
2021/06/16 03:40:56;;;;;;;17.13;7.30;;;;;;;14.63;74.12;101854.66;5013758;28;20065;-71
2021/06/16 03:43:24;;;;;;;17.83;8.40;;;;;;;14.63;74.06;101852.84;5014848;28;20352;-70
2021/06/16 03:45:53;;;;;;;12.20;7.28;;;;;;;14.63;74.33;101855.53;5012185;28;20058;-70
2021/06/16 03:48:24;;;;;;;14.43;6.68;;;;;;;14.65;74.46;101853.69;5016462;28;20050;-70
2021/06/16 03:50:54;;;;;;;14.68;7.78;;;;;;;14.63;74.87;101852.84;5016252;28;20064;-70
2021/06/16 03:53:24;;;;;;;11.10;6.68;;;;;;;14.65;75.40;101847.44;5016164;28;20065;-70
2021/06/16 03:55:52;;;;;;;16.17;7.80;;;;;;;14.66;74.85;101847.38;5011946;28;20077;-70
2021/06/16 03:58:20;;;;;;;18.67;7.82;;;;;;;14.67;75.03;101851.81;5016701;28;20060;-70
2021/06/16 04:00:49;;;;;;;15.63;7.30;;;;;;;14.67;75.07;101849.13;5014695;28;20061;-70
2021/06/16 04:03:17;;;;;;;17.50;7.60;;;;;;;14.70;75.17;101849.03;5015507;28;20057;-70
2021/06/16 04:05:45;;;;;;;14.93;7.38;;;;;;;14.75;75.13;101847.06;5015811;28;20057;-70
2021/06/16 04:08:13;;;;;;;15.80;7.25;;;;;;;14.81;74.65;101845.09;5014090;28;20057;-69
2021/06/16 04:10:46;;;;;;;15.38;7.40;;;;;;;14.85;74.60;101846.78;5019135;28;20057;-70
2021/06/16 04:13:14;;;;;;;19.52;8.27;;;;;;;14.88;74.66;101849.34;5017822;28;20053;-70
2021/06/16 04:15:42;;;;;;;18.52;8.43;;;;;;;14.88;74.91;101849.34;5024231;28;20072;-70
2021/06/16 04:18:10;;;;;;;12.98;7.68;;;;;;;14.95;74.62;101845.53;5009671;28;20061;-70
2021/06/16 04:20:38;;;;;;;14.38;8.13;;;;;;;15.01;74.22;101847.97;5015210;28;20076;-70
2021/06/16 04:23:06;;;;;;;15.13;8.93;;;;;;;15.07;74.05;101841.53;5015473;28;20065;-70
2021/06/16 04:25:34;;;;;;;15.25;8.18;;;;;;;15.19;73.60;101842.88;5011549;28;20093;-69
2021/06/16 04:28:04;;;;;;;16.13;8.50;;;;;;;15.23;73.46;101841.88;5013623;28;20616;-69
2021/06/16 04:30:32;;;;;;;15.32;8.75;;;;;;;15.34;72.79;101842.38;5018725;28;20073;-69
2021/06/16 04:33:00;;;;;;;16.77;8.25;;;;;;;15.42;72.54;101834.88;5010033;28;20115;-69
2021/06/16 04:35:27;;;;;;;14.68;7.70;;;;;;;15.52;71.37;101837.25;5020896;28;20073;-69
2021/06/16 04:37:55;;;;;;;18.55;8.07;;;;;;;15.58;71.35;101827.13;5013260;28;20065;-69
2021/06/16 04:40:23;;;;;;;18.83;8.20;;;;;;;15.75;70.70;101825.59;5014743;28;20061;-69
2021/06/16 04:42:51;;;;;;;14.70;7.68;;;;;;;15.87;70.29;101825.19;5014758;28;20083;-70
2021/06/16 04:45:20;;;;;;;18.98;8.52;;;;;;;16.02;69.71;101812.91;5014015;28;20111;-70
2021/06/16 04:47:48;;;;;;;14.15;8.93;;;;;;;16.18;69.40;101815.91;5017345;28;20053;-69
2021/06/16 04:50:16;;;;;;;17.65;8.85;;;;;;;16.33;68.53;101809.00;5014936;28;20187;-70
2021/06/16 04:52:44;;;;;;;17.33;9.05;;;;;;;16.45;67.33;101808.50;5016743;28;20053;-70
2021/06/16 04:55:13;;;;;;;16.13;8.07;;;;;;;16.62;66.82;101813.19;5015201;28;20065;-70
2021/06/16 04:57:41;;;;;;;15.20;9.20;;;;;;;16.70;66.23;101811.06;5013928;28;20164;-73
2021/06/16 05:00:12;;;;;;;12.43;7.57;;;;;;;16.85;65.35;101809.53;5010243;28;20066;-73
2021/06/16 05:02:42;;;;;;;16.10;8.30;;;;;;;17.15;65.54;101810.03;5015528;28;20061;-74
2021/06/16 05:05:14;;;;;;;17.65;7.65;;;;;;;17.33;64.80;101810.13;5011940;28;20073;-74
2021/06/16 05:07:42;;;;;;;16.23;8.52;;;;;;;17.50;63.92;101807.56;5020497;28;20053;-74
2021/06/16 05:10:13;;;;;;;16.00;8.35;;;;;;;17.59;63.68;101803.56;5011347;28;20053;-74
2021/06/16 05:12:42;;;;;;;15.93;8.15;;;;;;;17.61;62.67;101793.59;5021796;28;20065;-73
2021/06/16 05:15:14;;;;;;;16.27;8.95;;;;;;;17.61;62.79;101800.81;5015820;28;20068;-74
2021/06/16 05:17:46;;;;;;;14.60;7.38;;;;;;;17.91;62.83;101795.78;5020663;28;20164;-74
2021/06/16 05:20:17;;;;;;;17.33;8.07;;;;;;;18.00;61.99;101794.50;5019653;28;20488;-74
2021/06/16 05:22:51;;;;;;;16.77;8.40;;;;;;;18.04;62.36;101788.88;5017539;28;20330;-72
2021/06/16 05:25:19;;;;;;;18.92;7.65;;;;;;;18.18;61.51;101787.31;5017676;28;20057;-74
2021/06/16 05:27:47;;;;;;;17.33;7.68;;;;;;;18.23;61.17;101778.03;5018940;28;20150;-74
2021/06/16 05:30:19;;;;;;;15.40;7.78;;;;;;;18.33;60.81;101781.16;5017280;28;20069;-73
2021/06/16 05:32:51;;;;;;;15.60;8.30;;;;;;;18.57;60.34;101779.03;5023301;28;20069;-73
2021/06/16 05:35:19;;;;;;;15.13;8.05;;;;;;;18.84;59.58;101790.28;5014806;28;20522;-73
2021/06/16 05:37:52;;;;;;;17.00;8.25;;;;;;;18.99;58.79;101787.75;5020514;28;20414;-73
2021/06/16 05:40:20;;;;;;;17.42;8.00;;;;;;;19.03;58.40;101776.72;5021163;28;20072;-75
2021/06/16 05:42:50;;;;;;;14.32;7.32;;;;;;;19.11;57.69;101783.53;5019878;28;20053;-74
2021/06/16 05:45:18;;;;;;;19.83;8.02;;;;;;;19.42;57.30;101780.91;5020287;28;20403;-74
2021/06/16 05:47:46;;;;;;;19.20;8.88;;;;;;;19.72;56.79;101774.78;5017117;28;20065;-74
2021/06/16 05:50:18;;;;;;;15.90;7.45;;;;;;;19.88;56.32;101768.53;5021248;28;20510;-72
2021/06/16 05:52:49;;;;;;;16.02;8.10;;;;;;;20.11;55.29;101759.97;5010763;28;20060;-72
2021/06/16 05:55:16;;;;;;;17.75;8.00;;;;;;;20.14;55.08;101770.63;5014655;28;20071;-71
2021/06/16 05:57:45;;;;;;;16.83;7.97;;;;;;;20.23;54.64;101755.69;5013566;28;20069;-71
2021/06/16 06:00:14;;;;;;;14.77;8.13;;;;;;;20.65;53.97;101759.56;5013768;28;20061;-71
2021/06/16 06:02:44;;;;;;;16.95;8.85;;;;;;;20.50;53.60;101753.19;5015297;28;20403;-71
2021/06/16 06:05:13;;;;;;;17.33;8.50;;;;;;;20.88;52.86;101754.56;5016200;28;20053;-72
2021/06/16 06:07:42;;;;;;;15.95;8.98;;;;;;;20.99;52.93;101748.47;5009798;28;20058;-72
2021/06/16 06:10:15;;;;;;;14.88;8.57;;;;;;;21.29;51.82;101744.84;5015964;28;20069;-73
2021/06/16 06:12:45;;;;;;;16.00;8.93;;;;;;;21.70;51.06;101744.06;5014353;28;20065;-72
2021/06/16 06:15:14;;;;;;;14.55;8.95;;;;;;;21.59;51.08;101737.47;5017054;28;20097;-71
2021/06/16 06:17:42;;;;;;;17.50;9.55;;;;;;;21.83;50.92;101731.44;5014048;28;20128;-72
2021/06/16 06:20:11;;;;;;;20.70;10.05;;;;;;;21.85;49.70;101728.63;5014845;28;20119;-71
2021/06/16 06:22:43;;;;;;;20.05;10.10;;;;;;;21.87;50.03;101726.66;5011234;28;20136;-72
2021/06/16 06:25:11;;;;;;;17.30;9.63;;;;;;;22.34;48.86;101726.22;5011943;28;20076;-71
2021/06/16 06:27:40;;;;;;;19.85;10.52;;;;;;;22.66;48.34;101719.53;5015552;28;20066;-72
2021/06/16 06:30:09;;;;;;;16.88;10.07;;;;;;;22.60;48.14;101728.16;5013738;28;20055;-72
2021/06/16 06:32:38;;;;;;;20.50;10.85;;;;;;;22.87;47.85;101718.06;5013407;28;20061;-70
2021/06/16 06:35:06;;;;;;;21.75;10.32;;;;;;;23.15;46.89;101717.97;5020824;28;20076;-72
2021/06/16 06:37:35;;;;;;;21.30;10.45;;;;;;;23.16;46.87;101712.44;5016474;28;20061;-73
2021/06/16 06:40:05;;;;;;;17.08;9.75;;;;;;;23.37;46.38;101712.72;5018998;28;20065;-73
2021/06/16 06:42:33;;;;;;;18.27;10.63;;;;;;;23.32;46.39;101709.47;5016992;28;20444;-72
2021/06/16 06:45:01;;;;;;;20.42;10.27;;;;;;;23.73;45.56;101694.66;5017163;28;20486;-72
2021/06/16 06:47:29;;;;;;;19.13;10.30;;;;;;;23.43;45.54;101711.44;5017048;28;20066;-71
2021/06/16 06:49:57;;;;;;;14.90;9.52;;;;;;;24.07;44.95;101703.06;5013725;28;20061;-72
2021/06/16 06:52:25;;;;;;;19.58;10.43;;;;;;;24.00;44.77;101702.66;5020649;28;20108;-72
2021/06/16 06:54:54;;;;;;;19.00;10.25;;;;;;;24.19;44.37;101698.53;5012769;28;20060;-73
2021/06/16 06:57:23;;;;;;;19.33;10.32;;;;;;;24.43;44.13;101695.75;5018679;28;20067;-72
2021/06/16 06:59:50;;;;;;;14.70;9.27;;;;;;;24.47;43.44;101700.00;5014946;28;20068;-69
2021/06/16 07:02:18;;;;;;;17.38;9.45;;;;;;;24.36;43.42;101698.09;5015769;28;20937;-69
2021/06/16 07:04:46;;;;;;;15.48;8.88;;;;;;;24.59;43.60;101692.78;5014196;28;20057;-69
2021/06/16 07:07:13;;;;;;;15.82;9.65;;;;;;;24.85;43.42;101687.97;5013648;28;20069;-69
2021/06/16 07:09:41;;;;;;;15.25;9.05;;;;;;;24.94;43.46;101681.81;5008404;28;21149;-69
2021/06/16 07:12:10;;;;;;;18.35;10.27;;;;;;;25.06;42.56;101679.06;5015492;28;20080;-69
2021/06/16 07:14:40;;;;;;;16.85;9.07;;;;;;;25.37;42.34;101679.34;5010898;28;20069;-69
2021/06/16 07:17:08;;;;;;;14.52;8.82;;;;;;;25.53;41.33;101674.34;5014175;28;20149;-69
2021/06/16 07:19:36;;;;;;;16.00;8.77;;;;;;;25.63;41.28;101679.94;5015909;28;20188;-69
2021/06/16 07:22:04;;;;;;;14.18;8.00;;;;;;;25.80;40.74;101684.00;5018797;28;20062;-69
2021/06/16 07:24:32;;;;;;;15.05;8.77;;;;;;;25.61;40.83;101673.69;5018333;28;20069;-69
2021/06/16 07:27:00;;;;;;;14.93;8.60;;;;;;;25.99;40.47;101666.94;5014148;28;20057;-69
2021/06/16 07:29:28;;;;;;;16.67;8.25;;;;;;;26.22;39.85;101671.31;5013647;28;20072;-71
2021/06/16 07:31:57;;;;;;;14.77;8.65;;;;;;;26.37;40.33;101666.38;5013471;28;20065;-71
2021/06/16 07:34:25;;;;;;;15.60;8.15;;;;;;;26.39;39.43;101661.66;5013713;28;20131;-71
2021/06/16 07:36:54;;;;;;;16.90;8.57;;;;;;;26.40;39.18;101660.66;5012120;28;20059;-71
2021/06/16 07:39:22;;;;;;;12.68;8.30;;;;;;;26.21;39.28;101661.38;5012968;28;20115;-71
2021/06/16 07:41:50;;;;;;;14.20;8.02;;;;;;;25.96;39.49;101656.25;5008916;28;20587;-71
2021/06/16 07:44:17;;;;;;;14.05;8.20;;;;;;;26.46;39.47;101660.13;5015206;28;20060;-71
2021/06/16 07:46:45;;;;;;;15.57;8.85;;;;;;;26.23;39.28;101664.84;5009556;28;20069;-72
2021/06/16 07:49:14;;;;;;;17.60;8.90;;;;;;;26.44;38.72;101653.94;5012690;28;20522;-72
2021/06/16 07:51:42;;;;;;;12.18;8.45;;;;;;;26.34;39.56;101655.72;5011362;28;20140;-71
2021/06/16 07:54:12;;;;;;;15.40;8.50;;;;;;;26.93;38.08;101651.50;5011930;28;20065;-72
2021/06/16 07:56:40;;;;;;;13.43;8.25;;;;;;;26.93;38.42;101661.59;5009249;28;20061;-72
2021/06/16 07:59:08;;;;;;;15.43;8.15;;;;;;;26.77;38.58;101659.34;5014452;28;20107;-71
2021/06/16 08:01:38;;;;;;;17.05;8.82;;;;;;;26.50;38.95;101657.13;5009489;28;20176;-75
2021/06/16 08:04:06;;;;;;;12.57;7.80;;;;;;;26.89;38.22;101652.78;5012008;28;20053;-75
2021/06/16 08:06:35;;;;;;;14.13;8.05;;;;;;;26.84;38.75;101644.13;5014634;28;20069;-75
2021/06/16 08:09:03;;;;;;;12.85;7.90;;;;;;;26.98;38.05;101646.47;5012605;28;20054;-75
2021/06/16 08:11:31;;;;;;;15.40;9.13;;;;;;;26.94;37.54;101644.16;5016930;28;20080;-74
2021/06/16 08:13:59;;;;;;;15.52;7.70;;;;;;;27.13;37.41;101646.13;5012963;28;20077;-75
2021/06/16 08:16:27;;;;;;;14.32;8.32;;;;;;;27.05;38.03;101644.06;5017939;28;20057;-75
2021/06/16 08:18:55;;;;;;;18.88;9.05;;;;;;;27.27;37.17;101643.00;5013939;28;20061;-73
2021/06/16 08:21:23;;;;;;;14.30;7.55;;;;;;;27.52;36.98;101633.44;5017240;28;20057;-74
2021/06/16 08:23:52;;;;;;;11.93;6.65;;;;;;;27.63;36.37;101626.94;5013313;28;20064;-74
2021/06/16 08:26:20;;;;;;;13.98;7.38;;;;;;;27.94;35.92;101630.50;5013953;28;20049;-75
2021/06/16 08:28:48;;;;;;;12.23;7.00;;;;;;;28.04;35.26;101627.72;5013596;28;20057;-74
2021/06/16 08:31:16;;;;;;;10.95;6.30;;;;;;;27.74;35.73;101623.25;5014911;28;20053;-74
2021/06/16 08:33:44;;;;;;;12.70;6.40;;;;;;;27.83;35.98;101627.84;5016231;28;20061;-74
2021/06/16 08:36:12;;;;;;;10.68;5.85;;;;;;;27.89;35.83;101624.53;5016121;28;20061;-75
2021/06/16 08:38:39;;;;;;;11.95;6.45;;;;;;;28.15;35.51;101620.41;5014385;28;20148;-74
2021/06/16 08:41:09;;;;;;;12.65;6.32;;;;;;;28.31;34.65;101623.38;5014140;28;20065;-75
2021/06/16 08:43:39;;;;;;;14.38;6.32;;;;;;;27.99;34.98;101630.03;5011272;28;20053;-75
2021/06/16 08:46:09;;;;;;;12.35;7.20;;;;;;;28.03;35.22;101628.75;5015178;28;20064;-75
2021/06/16 08:48:38;;;;;;;12.88;6.93;;;;;;;28.17;35.55;101626.59;5011260;28;20065;-74
2021/06/16 08:51:07;;;;;;;12.10;6.32;;;;;;;28.54;34.54;101636.78;5017403;28;20058;-74
2021/06/16 08:53:35;;;;;;;14.82;6.88;;;;;;;28.33;34.88;101629.59;5017305;28;20068;-73
2021/06/16 08:56:04;;;;;;;13.82;6.95;;;;;;;27.95;34.98;101636.84;5020239;28;20061;-71
2021/06/16 08:58:37;;;;;;;10.02;6.25;;;;;;;27.99;35.08;101634.66;5013596;28;20053;-73
2021/06/16 09:01:06;;;;;;;13.07;6.90;;;;;;;28.32;35.04;101631.47;5016871;28;20065;-70
2021/06/16 09:03:35;;;;;;;11.88;7.22;;;;;;;28.12;34.84;101627.03;5013829;28;20383;-69
2021/06/16 09:06:05;;;;;;;14.88;6.80;;;;;;;28.08;34.74;101631.94;5009978;28;20407;-72
2021/06/16 09:08:33;;;;;;;12.63;6.88;;;;;;;28.31;34.73;101627.00;5018327;28;20073;-71
2021/06/16 09:11:01;;;;;;;12.52;6.72;;;;;;;28.42;34.42;101617.75;5012918;28;20068;-72
2021/06/16 09:13:32;;;;;;;11.25;5.97;;;;;;;28.87;33.97;101610.72;5016473;28;20068;-70
2021/06/16 09:16:22;;;;;;;11.07;6.60;;;;;;;28.64;34.15;101611.09;5011895;28;20064;-71
2021/06/16 09:18:51;;;;;;;15.35;6.25;;;;;;;28.48;34.52;101610.78;5016173;28;20687;-72
2021/06/16 09:21:32;;;;;;;16.05;7.60;;;;;;;28.63;34.35;101612.09;5011373;28;20065;-71
2021/06/16 09:24:00;;;;;;;11.10;6.90;;;;;;;28.77;34.67;101598.91;5016535;28;20053;-71
2021/06/16 09:26:33;;;;;;;10.60;5.80;;;;;;;28.91;34.34;101597.53;5011935;28;20064;-70
2021/06/16 09:29:01;;;;;;;10.95;6.07;;;;;;;28.59;34.31;101602.44;5015938;28;20056;-71
2021/06/16 09:31:38;;;;;;;11.60;6.43;;;;;;;28.91;34.26;101603.88;5012782;28;20088;-71
2021/06/16 09:34:09;;;;;;;13.15;5.95;;;;;;;29.21;33.78;101590.91;5014092;28;20164;-71
2021/06/16 09:36:48;;;;;;;12.80;6.53;;;;;;;29.02;33.93;101592.72;5010570;28;20057;-71
2021/06/16 09:39:19;;;;;;;9.38;5.72;;;;;;;29.35;33.84;101595.88;5015413;28;20064;-70
2021/06/16 09:42:00;;;;;;;10.07;6.80;;;;;;;28.83;34.69;101596.41;5013621;28;20411;-72
2021/06/16 09:44:45;;;;;;;15.32;6.15;;;;;;;29.32;34.01;101587.09;5014510;28;20056;-71
2021/06/16 09:47:16;;;;;;;12.75;7.00;;;;;;;29.30;33.89;101595.47;5013510;28;20061;-70
2021/06/16 09:49:53;;;;;;;11.50;7.25;;;;;;;29.03;34.32;101594.47;5014923;28;20068;-70
2021/06/16 09:52:36;;;;;;;11.75;6.35;;;;;;;29.18;33.98;101592.06;5013705;28;20142;-71
2021/06/16 09:55:06;;;;;;;10.75;6.72;;;;;;;29.09;33.80;101592.13;5012053;28;20460;-72
2021/06/16 09:57:35;;;;;;;8.95;5.80;;;;;;;29.62;33.42;101577.63;5014621;28;20069;-71
2021/06/16 10:00:09;;;;;;;9.93;5.43;;;;;;;29.85;32.71;101575.31;5020332;28;20077;-71
2021/06/16 10:02:41;;;;;;;9.43;5.35;;;;;;;29.74;32.98;101575.50;5013997;28;20475;-71
2021/06/16 10:05:14;;;;;;;12.55;5.63;;;;;;;29.76;32.50;101576.19;5020583;28;20084;-71
2021/06/16 10:07:42;;;;;;;10.88;5.60;;;;;;;29.86;32.87;101573.41;5013847;28;20144;-71
2021/06/16 10:10:12;;;;;;;11.70;5.80;;;;;;;29.61;32.81;101576.75;5017854;28;20065;-71
2021/06/16 10:12:41;;;;;;;12.38;5.38;;;;;;;30.00;32.47;101581.09;5016893;28;20241;-72
2021/06/16 10:15:13;;;;;;;12.65;5.57;;;;;;;29.87;32.34;101575.16;5014113;28;20123;-71
2021/06/16 10:17:42;;;;;;;9.18;5.07;;;;;;;29.76;32.42;101581.69;5015163;28;20186;-71
2021/06/16 10:20:14;;;;;;;8.90;5.30;;;;;;;29.48;32.55;101575.44;5016820;28;20077;-72
2021/06/16 10:22:42;;;;;;;12.52;5.28;;;;;;;29.60;32.61;101566.78;5016419;28;20053;-72
2021/06/16 10:25:11;;;;;;;12.48;5.88;;;;;;;29.95;31.59;101567.84;5017791;28;20088;-71
2021/06/16 10:27:46;;;;;;;12.07;5.38;;;;;;;29.70;33.00;101568.59;5015303;28;20655;-72
2021/06/16 10:30:16;;;;;;;8.07;5.35;;;;;;;29.89;32.52;101573.09;5026155;28;20488;-71
2021/06/16 10:32:47;;;;;;;11.30;5.78;;;;;;;29.84;32.56;101573.56;5013824;28;20049;-71
2021/06/16 10:35:34;;;;;;;10.60;5.75;;;;;;;29.76;32.18;101567.94;5016038;28;20056;-71
2021/06/16 10:38:12;;;;;;;11.02;5.43;;;;;;;29.84;32.20;101569.97;5013827;28;20897;-71
2021/06/16 10:40:47;;;;;;;9.93;5.53;;;;;;;29.73;32.03;101573.75;5015814;28;20053;-71
2021/06/16 10:43:29;;;;;;;11.00;4.93;;;;;;;29.93;32.13;101569.88;5014829;28;20064;-71
2021/06/16 10:46:05;;;;;;;8.70;4.93;;;;;;;30.06;32.28;101574.97;5015271;28;20513;-72
2021/06/16 10:49:01;;;;;;;9.13;6.03;;;;;;;30.48;31.80;101567.91;5014912;28;20062;-71
2021/06/16 10:51:40;;;;;;;9.82;5.32;;;;;;;30.24;31.73;101563.03;4981096;28;20069;-72
2021/06/16 10:54:32;;;;;;;12.13;6.13;;;;;;;30.39;32.08;101568.88;5013368;28;20065;-72
2021/06/16 10:57:10;;;;;;;10.68;5.78;;;;;;;30.35;31.76;101560.94;5013015;28;20089;-72
2021/06/16 11:00:05;;;;;;;12.05;6.30;;;;;;;30.17;31.75;101562.81;5011587;28;20100;-71
2021/06/16 11:03:06;;;;;;;10.20;5.00;;;;;;;31.14;30.37;101551.72;5015856;28;20065;-72
2021/06/16 11:05:46;;;;;;;11.02;6.35;;;;;;;30.64;31.67;101547.84;5014921;28;20171;-73
2021/06/16 11:08:51;;;;;;;10.13;6.13;;;;;;;30.58;32.17;101552.13;5015920;28;20089;-75
2021/06/16 11:11:21;;;;;;;11.38;6.90;;;;;;;30.48;31.51;101544.00;5011658;28;20072;-78
2021/06/16 11:13:48;;;;;;;13.73;7.60;;;;;;;30.33;31.59;101551.94;5015121;28;20066;-74
2021/06/16 11:16:53;;;;;;;11.10;7.57;;;;;;;30.82;30.79;101545.88;5013427;28;20068;-76
2021/06/16 11:19:41;;;;;;;14.98;7.97;;;;;;;30.97;31.18;101534.25;5017452;28;20065;-75
2021/06/16 11:22:35;;;;;;;11.95;7.53;;;;;;;31.09;31.38;101527.41;5008980;28;20449;-76
2021/06/16 11:25:10;;;;;;;11.95;6.32;;;;;;;31.11;31.65;101525.38;5014860;28;20188;-76
2021/06/16 11:28:18;;;;;;;11.55;5.97;;;;;;;31.61;31.01;101518.06;5017664;28;20065;-76
2021/06/16 11:31:10;;;;;;;13.30;6.88;;;;;;;31.01;31.11;101508.97;5017172;28;20112;-76
2021/06/16 11:33:49;;;;;;;14.68;7.30;;;;;;;31.36;30.72;101509.72;5018573;28;20057;-76